createdAt,value
2023-03-20T00:01:17.532Z,8.67
2023-03-20T00:03:44.432Z,7.93
2023-03-20T00:06:26.034Z,9.07
2023-03-20T00:08:54.786Z,8.20
2023-03-20T00:11:30.736Z,8.30
2023-03-20T00:14:00.856Z,8.13
2023-03-20T00:16:32.473Z,8.07
2023-03-20T00:18:59.421Z,8.73
2023-03-20T00:21:26.423Z,8.60
2023-03-20T00:23:54.627Z,8.50
2023-03-20T00:26:35.365Z,8.90
2023-03-20T00:29:04.082Z,8.97
2023-03-20T00:31:36.064Z,9.33
2023-03-20T00:34:05.673Z,9.20
2023-03-20T00:36:33.001Z,9.67
2023-03-20T00:38:59.989Z,15.47
2023-03-20T00:41:28.455Z,10.00
2023-03-20T00:44:01.676Z,9.00
2023-03-20T00:46:32.156Z,8.83
2023-03-20T00:48:58.848Z,8.33
2023-03-20T00:51:25.624Z,8.73
2023-03-20T00:53:52.380Z,8.80
2023-03-20T00:56:36.361Z,8.87
2023-03-20T00:59:04.249Z,9.33
2023-03-20T01:01:32.243Z,10.17
2023-03-20T01:04:00.240Z,10.50
2023-03-20T01:06:28.851Z,11.00
2023-03-20T01:08:57.679Z,10.73
2023-03-20T01:11:24.844Z,11.10
2023-03-20T01:13:52.342Z,11.07
2023-03-20T01:16:25.610Z,11.00
2023-03-20T01:18:52.992Z,11.80
2023-03-20T01:21:21.138Z,12.33
2023-03-20T01:23:49.454Z,11.87
2023-03-20T01:26:24.070Z,12.13
2023-03-20T01:28:51.590Z,12.23
2023-03-20T01:31:18.979Z,12.30
2023-03-20T01:33:46.747Z,13.77
2023-03-20T01:36:15.953Z,13.10
2023-03-20T01:38:43.458Z,13.40
2023-03-20T01:41:14.490Z,14.80
2023-03-20T01:43:41.396Z,13.53
2023-03-20T01:46:28.538Z,14.93
2023-03-20T01:49:20.702Z,15.87
2023-03-20T01:51:48.797Z,16.83
2023-03-20T01:54:19.314Z,17.33
2023-03-20T01:56:53.133Z,17.23
2023-03-20T01:59:31.822Z,18.40
2023-03-20T02:01:58.898Z,19.17
2023-03-20T02:04:36.027Z,19.53
2023-03-20T02:07:05.314Z,18.77
2023-03-20T02:09:32.023Z,20.10
2023-03-20T02:12:00.398Z,19.87
2023-03-20T02:14:28.170Z,19.53
2023-03-20T02:16:55.044Z,20.67
2023-03-20T02:20:00.638Z,20.63
2023-03-20T02:22:48.849Z,20.17
2023-03-20T02:25:37.750Z,21.13
2023-03-20T02:28:10.317Z,21.77
2023-03-20T02:31:01.888Z,22.90
2023-03-20T02:33:58.328Z,23.17
2023-03-20T02:37:00.526Z,23.30
2023-03-20T02:40:06.328Z,23.27
2023-03-20T02:42:58.475Z,22.43
2023-03-20T02:45:45.871Z,22.87
2023-03-20T02:48:24.287Z,22.70
2023-03-20T02:51:06.917Z,21.47
2023-03-20T02:53:52.494Z,21.97
2023-03-20T02:56:25.346Z,20.90
2023-03-20T02:59:11.189Z,20.47
2023-03-20T03:01:47.027Z,20.07
2023-03-20T03:04:18.901Z,20.40
2023-03-20T03:06:49.220Z,18.70
2023-03-20T03:09:21.137Z,19.87
2023-03-20T03:11:56.076Z,17.40
2023-03-20T03:14:41.457Z,17.70
2023-03-20T03:17:10.273Z,17.83
2023-03-20T03:19:39.568Z,17.60
2023-03-20T03:22:06.522Z,18.67
2023-03-20T03:24:48.680Z,18.47
2023-03-20T03:27:29.305Z,18.17
2023-03-20T03:30:02.536Z,18.47
2023-03-20T03:32:30.660Z,17.93
2023-03-20T03:34:58.351Z,18.07
2023-03-20T03:38:00.427Z,17.63
2023-03-20T03:40:27.089Z,17.43
2023-03-20T03:43:12.764Z,17.97
2023-03-20T03:45:46.563Z,17.83
2023-03-20T03:48:18.715Z,17.37
2023-03-20T03:50:53.239Z,18.17
2023-03-20T03:53:26.380Z,16.77
2023-03-20T03:55:57.732Z,17.43
2023-03-20T03:58:49.726Z,17.63
2023-03-20T04:01:17.882Z,17.67
2023-03-20T04:03:51.125Z,18.03
2023-03-20T04:06:19.226Z,17.47
2023-03-20T04:08:46.303Z,17.73
2023-03-20T04:11:16.791Z,18.97
2023-03-20T04:13:44.757Z,17.70
2023-03-20T04:16:17.052Z,18.10
2023-03-20T04:18:45.254Z,17.60
2023-03-20T04:21:12.333Z,16.80
2023-03-20T04:23:39.191Z,18.27
2023-03-20T04:26:06.849Z,17.10
2023-03-20T04:28:33.854Z,16.37
2023-03-20T04:31:02.339Z,17.33
2023-03-20T04:33:29.520Z,16.80
2023-03-20T04:35:56.673Z,16.80
2023-03-20T04:38:24.540Z,16.67
2023-03-20T04:40:51.547Z,16.37
2023-03-20T04:43:18.596Z,16.87
2023-03-20T04:45:45.361Z,15.70
2023-03-20T04:48:12.123Z,15.53
2023-03-20T04:50:39.114Z,16.23
2023-03-20T04:53:06.358Z,17.50
2023-03-20T04:55:33.298Z,16.27
2023-03-20T04:58:00.170Z,16.13
2023-03-20T05:00:26.908Z,16.03
2023-03-20T05:02:53.867Z,15.43
2023-03-20T05:05:20.729Z,15.33
2023-03-20T05:07:47.494Z,13.60
2023-03-20T05:10:14.264Z,13.70
2023-03-20T05:12:41.291Z,12.87
2023-03-20T05:15:08.766Z,12.90
2023-03-20T05:17:35.833Z,13.93
2023-03-20T05:20:02.691Z,13.40
2023-03-20T05:22:29.434Z,14.53
2023-03-20T05:24:56.361Z,14.03
2023-03-20T05:27:23.088Z,19.83
2023-03-20T05:29:49.815Z,13.20
2023-03-20T05:32:16.528Z,13.63
2023-03-20T05:34:43.321Z,12.77
2023-03-20T05:37:10.103Z,12.60
2023-03-20T05:39:36.800Z,13.10
2023-03-20T05:42:03.623Z,13.37
2023-03-20T05:44:30.874Z,12.07
2023-03-20T05:46:57.730Z,12.57
2023-03-20T05:49:24.451Z,11.70
2023-03-20T05:51:51.233Z,12.27
2023-03-20T05:54:18.167Z,12.50
2023-03-20T05:56:44.999Z,11.40
2023-03-20T05:59:12.218Z,12.90
2023-03-20T06:01:38.898Z,12.40
2023-03-20T06:04:05.876Z,11.93
2023-03-20T06:06:32.847Z,11.60
2023-03-20T06:08:59.674Z,11.97
2023-03-20T06:11:26.390Z,11.80
2023-03-20T06:13:55.683Z,10.90
2023-03-20T06:16:22.454Z,11.63
2023-03-20T06:18:49.296Z,11.67
2023-03-20T06:21:16.260Z,12.93
2023-03-20T06:23:42.991Z,11.30
2023-03-20T06:26:10.066Z,10.77
2023-03-20T06:28:37.193Z,11.23
2023-03-20T06:31:04.127Z,11.00
2023-03-20T06:33:30.944Z,10.77
2023-03-20T06:35:57.928Z,10.10
2023-03-20T06:38:24.763Z,10.30
2023-03-20T06:40:51.526Z,11.50
2023-03-20T06:43:19.241Z,10.93
2023-03-20T06:45:46.292Z,11.30
2023-03-20T06:48:13.030Z,9.60
2023-03-20T06:50:39.850Z,10.20
2023-03-20T06:53:06.703Z,10.07
2023-03-20T06:55:33.529Z,10.63
2023-03-20T06:58:00.598Z,10.50
2023-03-20T07:00:27.433Z,9.70
2023-03-20T07:02:54.463Z,9.57
2023-03-20T07:05:21.409Z,9.93
2023-03-20T07:07:48.301Z,9.43
2023-03-20T07:10:15.158Z,9.27
2023-03-20T07:12:41.878Z,8.97
2023-03-20T07:15:08.832Z,8.97
2023-03-20T07:17:35.735Z,9.03
2023-03-20T07:20:02.952Z,8.67
2023-03-20T07:22:31.695Z,9.20
2023-03-20T07:24:58.410Z,9.13
2023-03-20T07:27:25.297Z,7.87
2023-03-20T07:29:52.349Z,9.20
2023-03-20T07:32:19.309Z,8.57
2023-03-20T07:34:47.552Z,8.23
2023-03-20T07:37:14.343Z,7.43
2023-03-20T07:39:41.382Z,8.83
2023-03-20T07:42:08.278Z,8.70
2023-03-20T07:44:35.551Z,8.37
2023-03-20T07:47:02.292Z,8.33
2023-03-20T07:49:28.992Z,7.77
2023-03-20T07:51:56.926Z,8.27
2023-03-20T07:54:23.823Z,8.33
2023-03-20T07:56:50.940Z,9.30
2023-03-20T07:59:20.789Z,8.83
2023-03-20T08:01:47.538Z,7.80
2023-03-20T08:04:14.310Z,8.47
2023-03-20T08:06:41.561Z,9.13
2023-03-20T08:09:08.533Z,9.27
2023-03-20T08:11:35.444Z,8.80
2023-03-20T08:14:02.360Z,9.90
2023-03-20T08:16:29.139Z,8.43
2023-03-20T08:19:01.074Z,9.00
2023-03-20T08:21:32.427Z,9.57
2023-03-20T08:23:59.417Z,9.90
2023-03-20T08:26:26.175Z,10.10
2023-03-20T08:28:53.256Z,9.47
2023-03-20T08:31:20.533Z,9.33
2023-03-20T08:33:47.752Z,9.77
2023-03-20T08:36:16.053Z,9.80
2023-03-20T08:38:42.965Z,9.60
2023-03-20T08:41:09.704Z,8.67
2023-03-20T08:43:36.471Z,9.53
2023-03-20T08:46:03.566Z,9.23
2023-03-20T08:48:30.468Z,8.63
2023-03-20T08:50:57.413Z,9.53
2023-03-20T08:53:24.501Z,8.73
2023-03-20T08:55:52.650Z,7.63
2023-03-20T08:58:20.751Z,7.90
2023-03-20T09:00:47.773Z,8.07
2023-03-20T09:03:15.983Z,8.03
2023-03-20T09:05:51.200Z,7.53
2023-03-20T09:08:18.443Z,6.80
2023-03-20T09:10:50.354Z,6.83
2023-03-20T09:13:27.235Z,6.77
2023-03-20T09:15:56.365Z,6.40
2023-03-20T09:18:23.652Z,5.67
2023-03-20T09:20:50.966Z,6.73
2023-03-20T09:23:18.695Z,6.10
2023-03-20T09:25:47.233Z,5.67
2023-03-20T09:28:15.545Z,5.60
2023-03-20T09:30:43.643Z,6.03
2023-03-20T09:33:10.606Z,5.90
2023-03-20T09:35:37.896Z,5.97
2023-03-20T09:38:04.783Z,5.83
2023-03-20T09:40:49.437Z,5.60
2023-03-20T09:43:49.677Z,5.80
2023-03-20T09:46:36.061Z,6.47
2023-03-20T09:49:25.543Z,6.37
2023-03-20T09:52:00.337Z,5.90
2023-03-20T09:54:53.978Z,5.90
2023-03-20T09:57:28.114Z,7.00
2023-03-20T10:00:02.847Z,6.27
2023-03-20T10:02:44.060Z,6.10
2023-03-20T10:05:26.740Z,5.80
2023-03-20T10:08:03.134Z,5.77
2023-03-20T10:10:41.794Z,5.20
2023-03-20T10:13:40.870Z,4.90
2023-03-20T10:16:25.965Z,4.53
2023-03-20T10:19:20.716Z,5.70
2023-03-20T10:21:50.400Z,4.97
2023-03-20T10:24:45.478Z,5.30
2023-03-20T10:27:26.197Z,5.00
2023-03-20T10:30:19.042Z,4.47
2023-03-20T10:33:00.838Z,4.60
2023-03-20T10:35:40.601Z,5.03
2023-03-20T10:38:07.313Z,5.03
2023-03-20T10:40:38.551Z,4.10
2023-03-20T10:43:21.351Z,4.17
2023-03-20T10:45:52.944Z,4.00
2023-03-20T10:48:45.292Z,3.90
2023-03-20T10:51:17.830Z,3.63
2023-03-20T10:53:55.979Z,3.97
2023-03-20T10:56:22.680Z,3.00
2023-03-20T10:58:57.455Z,2.70
2023-03-20T11:01:24.246Z,2.40
2023-03-20T11:03:51.117Z,2.47
2023-03-20T11:06:24.729Z,3.20
2023-03-20T11:08:53.244Z,3.40
2023-03-20T11:11:28.576Z,3.20
2023-03-20T11:13:55.460Z,2.53
2023-03-20T11:16:25.442Z,3.17
2023-03-20T11:18:54.935Z,2.97
2023-03-20T11:21:25.492Z,2.80
2023-03-20T11:23:53.741Z,2.47
2023-03-20T11:26:31.004Z,2.37
2023-03-20T11:28:59.906Z,2.73
2023-03-20T11:31:41.430Z,2.50
2023-03-20T11:34:20.286Z,2.73
2023-03-20T11:37:10.232Z,2.60
2023-03-20T11:39:39.856Z,2.60
2023-03-20T11:42:23.542Z,2.80
2023-03-20T11:45:02.516Z,2.90
2023-03-20T11:47:33.758Z,3.30
2023-03-20T11:50:03.577Z,3.60
2023-03-20T11:52:37.176Z,3.13
2023-03-20T11:55:20.290Z,3.57
2023-03-20T11:57:49.096Z,3.60
2023-03-20T12:00:21.601Z,3.70
2023-03-20T12:02:48.820Z,4.20
2023-03-20T12:05:37.162Z,4.20
2023-03-20T12:08:12.495Z,3.77
2023-03-20T12:10:43.789Z,4.40
2023-03-20T12:13:24.193Z,4.10
2023-03-20T12:16:05.830Z,2.67
2023-03-20T12:18:41.004Z,2.70
2023-03-20T12:21:28.465Z,2.30
2023-03-20T12:24:13.283Z,1.93
2023-03-20T12:26:51.129Z,2.30
2023-03-20T12:29:30.306Z,2.37
2023-03-20T12:32:14.856Z,2.20
2023-03-20T12:34:47.093Z,2.13
2023-03-20T12:37:18.195Z,2.20
2023-03-20T12:39:53.577Z,2.03
2023-03-20T12:42:23.044Z,2.07
2023-03-20T12:45:01.235Z,1.93
2023-03-20T12:47:49.561Z,2.30
2023-03-20T12:50:32.777Z,1.97
2023-03-20T12:53:05.266Z,2.03
2023-03-20T12:56:01.757Z,2.07
2023-03-20T12:59:05.312Z,2.63
2023-03-20T13:01:45.640Z,2.50
2023-03-20T13:04:23.190Z,2.30
2023-03-20T13:07:02.107Z,2.03
2023-03-20T13:10:21.570Z,2.87
2023-03-20T13:12:48.253Z,3.03
2023-03-20T13:15:36.842Z,2.30
2023-03-20T13:18:37.217Z,2.20
2023-03-20T13:21:14.118Z,2.27
2023-03-20T13:23:54.661Z,1.87
2023-03-20T13:26:42.869Z,1.80
2023-03-20T13:29:12.460Z,2.10
2023-03-20T13:32:06.877Z,2.73
2023-03-20T13:34:54.097Z,1.97
2023-03-20T13:37:35.831Z,2.00
2023-03-20T13:40:28.608Z,2.33
2023-03-20T13:42:58.623Z,1.90
2023-03-20T13:45:55.724Z,1.73
2023-03-20T13:48:34.211Z,1.70
2023-03-20T13:51:12.695Z,1.90
2023-03-20T13:53:45.852Z,1.90
2023-03-20T13:56:37.033Z,2.10
2023-03-20T13:59:15.761Z,1.70
2023-03-20T14:02:04.115Z,1.80
2023-03-20T14:04:31.964Z,2.17
2023-03-20T14:06:59.757Z,2.30
2023-03-20T14:09:28.116Z,2.20
2023-03-20T14:11:58.975Z,1.90
2023-03-20T14:14:53.340Z,1.80
2023-03-20T14:17:31.224Z,2.00
2023-03-20T14:20:11.554Z,1.77
2023-03-20T14:22:43.214Z,1.80
2023-03-20T14:25:18.128Z,1.50
2023-03-20T14:27:56.891Z,1.57
2023-03-20T14:30:32.728Z,1.80
2023-03-20T14:33:06.785Z,1.70
2023-03-20T14:35:39.260Z,2.10
2023-03-20T14:38:28.432Z,1.90
2023-03-20T14:41:31.356Z,1.80
2023-03-20T14:44:17.891Z,2.17
2023-03-20T14:47:05.790Z,1.90
2023-03-20T14:49:32.549Z,2.10
2023-03-20T14:52:23.397Z,2.00
2023-03-20T14:54:54.895Z,2.23
2023-03-20T14:57:48.765Z,1.80
2023-03-20T15:00:25.927Z,1.80
2023-03-20T15:02:58.037Z,1.87
2023-03-20T15:05:33.824Z,2.00
2023-03-20T15:08:21.560Z,2.00
2023-03-20T15:10:53.318Z,2.23
2023-03-20T15:13:20.707Z,1.70
2023-03-20T15:16:02.938Z,1.70
2023-03-20T15:18:35.858Z,1.50
2023-03-20T15:21:03.731Z,1.77
2023-03-20T15:23:30.621Z,1.83
2023-03-20T15:26:00.910Z,1.63
2023-03-20T15:28:27.940Z,1.90
2023-03-20T15:30:59.359Z,1.90
2023-03-20T15:33:33.133Z,1.80
2023-03-20T15:36:26.503Z,1.80
2023-03-20T15:38:53.379Z,1.60
2023-03-20T15:41:27.325Z,1.90
2023-03-20T15:44:01.173Z,2.10
2023-03-20T15:46:27.896Z,1.73
2023-03-20T15:48:55.989Z,1.80
2023-03-20T15:51:26.367Z,1.80
2023-03-20T15:53:53.377Z,1.80
2023-03-20T15:56:26.016Z,2.30
2023-03-20T15:58:53.935Z,3.00
2023-03-20T16:01:24.443Z,3.37
2023-03-20T16:03:53.217Z,12.03
2023-03-20T16:06:22.248Z,1.90
2023-03-20T16:09:05.688Z,2.03
2023-03-20T16:11:40.643Z,2.47
2023-03-20T16:14:13.631Z,1.77
2023-03-20T16:16:41.125Z,1.73
2023-03-20T16:19:10.527Z,1.33
2023-03-20T16:21:40.794Z,1.47
2023-03-20T16:24:11.601Z,1.70
2023-03-20T16:26:43.504Z,1.77
2023-03-20T16:29:13.788Z,1.67
2023-03-20T16:31:59.178Z,2.10
2023-03-20T16:34:32.043Z,2.37
2023-03-20T16:37:01.731Z,1.97
2023-03-20T16:39:30.756Z,2.47
2023-03-20T16:42:08.146Z,3.57
2023-03-20T16:44:36.908Z,1.20
2023-03-20T16:47:17.950Z,1.30
2023-03-20T16:49:47.848Z,1.50
2023-03-20T16:52:19.493Z,1.50
2023-03-20T16:54:49.396Z,1.47
2023-03-20T16:57:19.530Z,1.40
2023-03-20T16:59:46.472Z,1.43
2023-03-20T17:02:22.885Z,1.43
2023-03-20T17:04:50.085Z,1.37
2023-03-20T17:07:19.438Z,1.30
2023-03-20T17:10:12.872Z,1.40
2023-03-20T17:12:41.979Z,1.20
2023-03-20T17:15:10.351Z,1.30
2023-03-20T17:17:37.056Z,1.33
2023-03-20T17:20:04.076Z,1.43
2023-03-20T17:22:31.250Z,1.60
2023-03-20T17:24:57.997Z,1.60
2023-03-20T17:27:31.831Z,1.77
2023-03-20T17:29:58.670Z,1.80
2023-03-20T17:32:25.781Z,2.13
2023-03-20T17:34:52.894Z,3.23
2023-03-20T17:37:27.755Z,3.80
2023-03-20T17:39:55.980Z,3.60
2023-03-20T17:42:26.689Z,3.50
2023-03-20T17:44:53.946Z,3.70
2023-03-20T17:47:23.370Z,3.40
2023-03-20T17:49:54.756Z,3.47
2023-03-20T17:52:24.926Z,3.63
2023-03-20T17:54:52.659Z,3.83
2023-03-20T17:57:37.037Z,4.07
2023-03-20T18:00:13.295Z,4.27
2023-03-20T18:02:40.171Z,4.03
2023-03-20T18:05:10.571Z,4.90
2023-03-20T18:07:37.943Z,4.60
2023-03-20T18:10:06.540Z,4.50
2023-03-20T18:12:35.645Z,3.50
2023-03-20T18:15:02.551Z,2.97
2023-03-20T18:17:29.473Z,3.23
2023-03-20T18:19:56.334Z,3.23
2023-03-20T18:22:23.276Z,7.97
2023-03-20T18:24:50.359Z,5.53
2023-03-20T18:27:17.268Z,3.90
2023-03-20T18:29:44.225Z,3.90
2023-03-20T18:32:11.006Z,4.00
2023-03-20T18:34:37.885Z,4.13
2023-03-20T18:37:07.999Z,4.33
2023-03-20T18:39:34.896Z,4.40
2023-03-20T18:42:01.959Z,11.63
2023-03-20T18:44:28.885Z,4.70
2023-03-20T18:46:55.695Z,4.50
2023-03-20T18:49:22.498Z,5.20
2023-03-20T18:51:49.753Z,6.03
2023-03-20T18:54:16.519Z,6.27
2023-03-20T18:56:44.469Z,5.90
2023-03-20T18:59:13.126Z,5.77
2023-03-20T19:01:39.980Z,5.50
2023-03-20T19:04:06.916Z,5.27
2023-03-20T19:06:33.967Z,5.33
2023-03-20T19:09:04.912Z,5.20
2023-03-20T19:11:31.797Z,5.70
2023-03-20T19:13:58.769Z,5.67
2023-03-20T19:16:28.735Z,5.93
2023-03-20T19:18:58.891Z,7.17
2023-03-20T19:21:29.039Z,7.97
2023-03-20T19:24:00.562Z,7.20
2023-03-20T19:26:29.001Z,7.47
2023-03-20T19:28:57.278Z,7.70
2023-03-20T19:31:25.650Z,8.30
2023-03-20T19:33:52.722Z,9.98
2023-03-20T19:36:30.069Z,11.27
2023-03-20T19:38:58.714Z,10.87
2023-03-20T19:41:27.734Z,10.90
2023-03-20T19:44:02.455Z,12.27
2023-03-20T19:46:45.253Z,12.90
2023-03-20T19:49:20.934Z,10.93
2023-03-20T19:51:48.900Z,9.17
2023-03-20T19:54:16.276Z,10.73
2023-03-20T19:56:43.200Z,8.40
2023-03-20T19:59:10.061Z,8.43
2023-03-20T20:01:37.076Z,8.80
2023-03-20T20:04:04.033Z,9.13
2023-03-20T20:06:33.008Z,10.47
2023-03-20T20:09:01.405Z,9.90
2023-03-20T20:11:29.299Z,9.20
2023-03-20T20:14:24.266Z,9.43
2023-03-20T20:16:43.787Z,9.00
2023-03-20T20:19:11.386Z,9.60
2023-03-20T20:24:25.244Z,8.67
2023-03-20T20:26:59.963Z,9.27
2023-03-20T20:29:34.197Z,8.20
2023-03-20T20:32:01.385Z,8.60
2023-03-20T20:40:05.145Z,8.43
2023-03-20T20:42:32.110Z,9.60
2023-03-20T20:44:58.862Z,8.40
2023-03-20T20:47:25.715Z,8.67
2023-03-20T20:49:52.580Z,9.27
2023-03-20T20:52:19.447Z,8.93
2023-03-20T20:54:46.424Z,9.27
2023-03-20T20:57:14.297Z,9.07
2023-03-20T20:59:41.322Z,8.40
2023-03-20T21:02:12.571Z,8.17
2023-03-20T21:04:40.989Z,9.33
2023-03-20T21:07:11.545Z,9.17
2023-03-20T21:09:39.271Z,9.73
2023-03-20T21:12:07.600Z,8.77
2023-03-20T21:14:35.202Z,8.60
2023-03-20T21:17:02.378Z,9.23
2023-03-20T21:19:32.554Z,8.80
2023-03-20T21:21:59.298Z,8.87
2023-03-20T21:24:33.156Z,8.90
2023-03-20T21:27:06.836Z,9.03
2023-03-20T21:29:34.084Z,13.57
2023-03-20T21:32:01.122Z,9.97
2023-03-20T21:34:29.121Z,10.23
2023-03-20T21:36:57.801Z,10.87
2023-03-20T21:39:27.552Z,11.70
2023-03-20T21:41:54.345Z,9.23
2023-03-20T21:44:57.339Z,10.27
2023-03-20T21:56:23.555Z,10.17
2023-03-20T22:12:56.010Z,8.83
2023-03-20T22:15:34.060Z,9.00
2023-03-20T22:27:10.720Z,8.73
2023-03-20T22:32:27.667Z,8.83
2023-03-20T22:38:00.394Z,8.37
2023-03-20T22:43:01.530Z,8.30
2023-03-20T22:45:42.520Z,9.00
2023-03-20T22:48:14.631Z,9.13
2023-03-20T22:50:41.683Z,8.60
2023-03-20T22:53:08.468Z,8.30
2023-03-20T22:55:35.244Z,8.00
2023-03-20T22:58:07.816Z,8.07
2023-03-20T23:00:36.334Z,8.50
2023-03-20T23:03:22.369Z,8.75
2023-03-20T23:05:52.373Z,7.63
2023-03-20T23:08:19.225Z,8.33
2023-03-20T23:10:47.989Z,7.67
2023-03-20T23:13:15.938Z,7.70
2023-03-20T23:15:45.773Z,7.63
2023-03-20T23:18:13.004Z,7.53
2023-03-20T23:20:40.955Z,7.53
2023-03-20T23:23:07.765Z,6.73
2023-03-20T23:25:40.808Z,7.40
2023-03-20T23:28:10.805Z,6.57
2023-03-20T23:30:45.355Z,7.03
2023-03-20T23:33:16.798Z,7.57
2023-03-20T23:35:43.685Z,7.93
2023-03-20T23:38:10.453Z,7.30
2023-03-20T23:40:37.698Z,7.50
2023-03-20T23:43:04.655Z,7.70
2023-03-20T23:45:31.439Z,7.70
2023-03-20T23:47:58.239Z,8.30
2023-03-20T23:50:39.630Z,7.67
2023-03-20T23:53:19.984Z,7.37
2023-03-20T23:55:49.061Z,7.87
2023-03-20T23:58:16.437Z,7.67
